sensor_id;sensor_type;location;lat;lon;timestamp;temperature;humidity
12849;DHT22;6493;50.928;7.172;2023-04-08T00:03:20;6.30;60.80
12849;DHT22;6493;50.928;7.172;2023-04-08T00:08:23;6.30;60.80
12849;DHT22;6493;50.928;7.172;2023-04-08T00:13:28;6.30;60.80
12849;DHT22;6493;50.928;7.172;2023-04-08T00:18:31;6.30;60.80
12849;DHT22;6493;50.928;7.172;2023-04-08T00:23:34;6.30;60.80
12849;DHT22;6493;50.928;7.172;2023-04-08T00:28:38;6.30;60.80
12849;DHT22;6493;50.928;7.172;2023-04-08T00:33:41;6.30;60.90
12849;DHT22;6493;50.928;7.172;2023-04-08T00:38:44;6.30;60.90
12849;DHT22;6493;50.928;7.172;2023-04-08T00:43:49;6.30;60.90
12849;DHT22;6493;50.928;7.172;2023-04-08T00:48:54;6.30;60.90
12849;DHT22;6493;50.928;7.172;2023-04-08T00:53:57;6.30;60.90
12849;DHT22;6493;50.928;7.172;2023-04-08T00:59:03;6.30;60.90
12849;DHT22;6493;50.928;7.172;2023-04-08T01:04:16;6.30;61.00
12849;DHT22;6493;50.928;7.172;2023-04-08T01:09:26;6.30;61.10
12849;DHT22;6493;50.928;7.172;2023-04-08T01:14:34;6.30;60.90
12849;DHT22;6493;50.928;7.172;2023-04-08T01:19:40;6.20;60.90
12849;DHT22;6493;50.928;7.172;2023-04-08T01:24:47;6.20;60.90
12849;DHT22;6493;50.928;7.172;2023-04-08T01:29:52;6.20;61.00
12849;DHT22;6493;50.928;7.172;2023-04-08T01:34:56;6.20;61.00
12849;DHT22;6493;50.928;7.172;2023-04-08T01:40:04;6.20;61.00
12849;DHT22;6493;50.928;7.172;2023-04-08T01:45:13;6.10;61.00
12849;DHT22;6493;50.928;7.172;2023-04-08T01:50:18;6.20;61.30
12849;DHT22;6493;50.928;7.172;2023-04-08T01:55:22;6.20;61.30
12849;DHT22;6493;50.928;7.172;2023-04-08T02:00:30;6.20;61.30
12849;DHT22;6493;50.928;7.172;2023-04-08T02:05:33;6.10;61.30
12849;DHT22;6493;50.928;7.172;2023-04-08T02:10:37;6.20;61.30
12849;DHT22;6493;50.928;7.172;2023-04-08T02:15:46;6.10;61.20
12849;DHT22;6493;50.928;7.172;2023-04-08T02:20:57;6.10;61.30
12849;DHT22;6493;50.928;7.172;2023-04-08T02:26:07;6.20;62.10
12849;DHT22;6493;50.928;7.172;2023-04-08T02:31:13;6.20;61.40
12849;DHT22;6493;50.928;7.172;2023-04-08T02:36:19;6.20;61.40
12849;DHT22;6493;50.928;7.172;2023-04-08T02:41:23;6.20;61.40
12849;DHT22;6493;50.928;7.172;2023-04-08T02:46:31;6.10;61.30
12849;DHT22;6493;50.928;7.172;2023-04-08T02:51:37;6.10;61.30
12849;DHT22;6493;50.928;7.172;2023-04-08T02:56:40;6.10;61.30
12849;DHT22;6493;50.928;7.172;2023-04-08T03:01:44;6.20;61.50
12849;DHT22;6493;50.928;7.172;2023-04-08T03:06:47;6.10;62.20
12849;DHT22;6493;50.928;7.172;2023-04-08T03:11:50;6.10;61.40
12849;DHT22;6493;50.928;7.172;2023-04-08T03:16:56;6.10;61.40
12849;DHT22;6493;50.928;7.172;2023-04-08T03:22:00;6.10;61.50
12849;DHT22;6493;50.928;7.172;2023-04-08T03:27:03;6.10;61.50
12849;DHT22;6493;50.928;7.172;2023-04-08T03:32:07;6.00;61.40
12849;DHT22;6493;50.928;7.172;2023-04-08T03:37:11;6.00;61.30
12849;DHT22;6493;50.928;7.172;2023-04-08T03:42:14;5.90;61.10
12849;DHT22;6493;50.928;7.172;2023-04-08T03:47:18;5.80;61.10
12849;DHT22;6493;50.928;7.172;2023-04-08T03:52:22;5.70;61.10
12849;DHT22;6493;50.928;7.172;2023-04-08T03:57:25;5.70;61.10
12849;DHT22;6493;50.928;7.172;2023-04-08T04:02:30;5.70;61.20
12849;DHT22;6493;50.928;7.172;2023-04-08T04:07:33;5.60;61.20
12849;DHT22;6493;50.928;7.172;2023-04-08T04:12:36;5.60;61.20
12849;DHT22;6493;50.928;7.172;2023-04-08T04:17:41;5.70;61.40
12849;DHT22;6493;50.928;7.172;2023-04-08T04:22:44;5.70;61.40
12849;DHT22;6493;50.928;7.172;2023-04-08T04:27:47;5.70;61.40
12849;DHT22;6493;50.928;7.172;2023-04-08T04:32:51;5.70;61.40
12849;DHT22;6493;50.928;7.172;2023-04-08T04:37:55;5.70;61.30
12849;DHT22;6493;50.928;7.172;2023-04-08T04:42:58;5.70;61.40
12849;DHT22;6493;50.928;7.172;2023-04-08T04:48:03;5.70;61.30
12849;DHT22;6493;50.928;7.172;2023-04-08T04:53:06;5.60;61.10
12849;DHT22;6493;50.928;7.172;2023-04-08T04:58:09;5.60;61.90
12849;DHT22;6493;50.928;7.172;2023-04-08T05:03:14;5.60;61.10
12849;DHT22;6493;50.928;7.172;2023-04-08T05:08:17;5.50;61.00
12849;DHT22;6493;50.928;7.172;2023-04-08T05:13:20;5.50;61.10
12849;DHT22;6493;50.928;7.172;2023-04-08T05:18:25;5.50;61.10
12849;DHT22;6493;50.928;7.172;2023-04-08T05:23:28;5.40;61.10
12849;DHT22;6493;50.928;7.172;2023-04-08T05:28:31;5.40;61.20
12849;DHT22;6493;50.928;7.172;2023-04-08T05:33:35;5.30;61.30
12849;DHT22;6493;50.928;7.172;2023-04-08T05:38:39;5.20;61.00
12849;DHT22;6493;50.928;7.172;2023-04-08T05:43:43;5.10;61.10
12849;DHT22;6493;50.928;7.172;2023-04-08T05:48:48;5.00;60.90
12849;DHT22;6493;50.928;7.172;2023-04-08T05:53:51;5.00;61.00
12849;DHT22;6493;50.928;7.172;2023-04-08T05:58:54;4.90;61.00
12849;DHT22;6493;50.928;7.172;2023-04-08T06:03:59;4.90;61.10
12849;DHT22;6493;50.928;7.172;2023-04-08T06:09:02;4.90;61.10
12849;DHT22;6493;50.928;7.172;2023-04-08T06:14:05;4.90;61.30
12849;DHT22;6493;50.928;7.172;2023-04-08T06:19:10;4.80;61.10
12849;DHT22;6493;50.928;7.172;2023-04-08T06:24:13;4.80;61.20
12849;DHT22;6493;50.928;7.172;2023-04-08T06:29:16;4.80;61.30
12849;DHT22;6493;50.928;7.172;2023-04-08T06:34:20;4.80;61.30
12849;DHT22;6493;50.928;7.172;2023-04-08T06:39:23;4.80;61.40
12849;DHT22;6493;50.928;7.172;2023-04-08T06:44:26;4.90;61.50
12849;DHT22;6493;50.928;7.172;2023-04-08T06:49:31;4.90;61.50
12849;DHT22;6493;50.928;7.172;2023-04-08T06:54:34;4.90;61.80
12849;DHT22;6493;50.928;7.172;2023-04-08T06:59:37;5.00;62.00
12849;DHT22;6493;50.928;7.172;2023-04-08T07:04:41;5.20;62.30
12849;DHT22;6493;50.928;7.172;2023-04-08T07:09:47;5.20;62.10
12849;DHT22;6493;50.928;7.172;2023-04-08T07:14:50;5.30;62.00
12849;DHT22;6493;50.928;7.172;2023-04-08T07:19:55;5.30;61.90
12849;DHT22;6493;50.928;7.172;2023-04-08T07:24:58;5.30;62.00
12849;DHT22;6493;50.928;7.172;2023-04-08T07:30:01;5.40;62.10
12849;DHT22;6493;50.928;7.172;2023-04-08T07:35:06;5.40;62.20
12849;DHT22;6493;50.928;7.172;2023-04-08T07:40:10;5.50;62.40
12849;DHT22;6493;50.928;7.172;2023-04-08T07:45:13;5.60;62.60
12849;DHT22;6493;50.928;7.172;2023-04-08T07:50:18;5.70;62.60
12849;DHT22;6493;50.928;7.172;2023-04-08T07:55:21;5.70;62.60
12849;DHT22;6493;50.928;7.172;2023-04-08T08:00:24;5.80;62.50
12849;DHT22;6493;50.928;7.172;2023-04-08T08:05:28;5.90;62.70
12849;DHT22;6493;50.928;7.172;2023-04-08T08:10:32;6.00;62.80
12849;DHT22;6493;50.928;7.172;2023-04-08T08:15:35;6.00;62.70
12849;DHT22;6493;50.928;7.172;2023-04-08T08:20:39;6.10;62.90
12849;DHT22;6493;50.928;7.172;2023-04-08T08:25:42;6.20;62.80
12849;DHT22;6493;50.928;7.172;2023-04-08T08:30:45;6.20;62.70
12849;DHT22;6493;50.928;7.172;2023-04-08T08:35:51;6.30;62.70
12849;DHT22;6493;50.928;7.172;2023-04-08T08:40:56;6.30;62.70
12849;DHT22;6493;50.928;7.172;2023-04-08T08:45:59;6.30;62.70
12849;DHT22;6493;50.928;7.172;2023-04-08T08:51:07;6.40;62.70
12849;DHT22;6493;50.928;7.172;2023-04-08T08:56:11;6.40;62.80
12849;DHT22;6493;50.928;7.172;2023-04-08T09:01:32;6.40;62.70
12849;DHT22;6493;50.928;7.172;2023-04-08T09:06:38;6.50;63.90
12849;DHT22;6493;50.928;7.172;2023-04-08T09:11:42;6.50;62.90
12849;DHT22;6493;50.928;7.172;2023-04-08T09:16:46;6.50;62.90
12849;DHT22;6493;50.928;7.172;2023-04-08T09:22:05;6.60;63.10
12849;DHT22;6493;50.928;7.172;2023-04-08T09:27:09;6.70;63.60
12849;DHT22;6493;50.928;7.172;2023-04-08T09:32:12;6.80;63.30
12849;DHT22;6493;50.928;7.172;2023-04-08T09:37:16;6.90;63.50
12849;DHT22;6493;50.928;7.172;2023-04-08T09:42:20;7.00;63.70
12849;DHT22;6493;50.928;7.172;2023-04-08T09:47:25;7.10;63.80
12849;DHT22;6493;50.928;7.172;2023-04-08T09:52:33;7.40;64.30
12849;DHT22;6493;50.928;7.172;2023-04-08T09:57:43;7.50;64.20
12849;DHT22;6493;50.928;7.172;2023-04-08T10:02:54;7.70;63.90
12849;DHT22;6493;50.928;7.172;2023-04-08T10:07:59;7.90;63.90
12849;DHT22;6493;50.928;7.172;2023-04-08T10:13:03;8.00;63.70
12849;DHT22;6493;50.928;7.172;2023-04-08T10:18:31;8.10;63.60
12849;DHT22;6493;50.928;7.172;2023-04-08T10:23:57;8.20;63.60
12849;DHT22;6493;50.928;7.172;2023-04-08T10:34:51;8.40;63.40
12849;DHT22;6493;50.928;7.172;2023-04-08T10:39:56;8.50;63.20
12849;DHT22;6493;50.928;7.172;2023-04-08T10:45:00;8.60;63.30
12849;DHT22;6493;50.928;7.172;2023-04-08T10:50:11;8.70;63.30
12849;DHT22;6493;50.928;7.172;2023-04-08T10:55:19;8.70;63.00
12849;DHT22;6493;50.928;7.172;2023-04-08T11:00:32;8.90;63.20
12849;DHT22;6493;50.928;7.172;2023-04-08T11:05:36;8.90;62.60
12849;DHT22;6493;50.928;7.172;2023-04-08T11:10:41;9.00;62.60
12849;DHT22;6493;50.928;7.172;2023-04-08T11:15:45;9.10;62.70
12849;DHT22;6493;50.928;7.172;2023-04-08T11:20:50;9.20;62.80
12849;DHT22;6493;50.928;7.172;2023-04-08T11:25:55;9.30;62.70
12849;DHT22;6493;50.928;7.172;2023-04-08T11:30:58;9.40;62.20
12849;DHT22;6493;50.928;7.172;2023-04-08T11:36:02;9.40;61.60
12849;DHT22;6493;50.928;7.172;2023-04-08T11:41:07;9.30;61.10
12849;DHT22;6493;50.928;7.172;2023-04-08T11:46:10;9.30;60.80
12849;DHT22;6493;50.928;7.172;2023-04-08T11:51:14;9.30;60.70
12849;DHT22;6493;50.928;7.172;2023-04-08T11:56:19;9.30;60.80
12849;DHT22;6493;50.928;7.172;2023-04-08T12:01:23;9.30;60.90
12849;DHT22;6493;50.928;7.172;2023-04-08T12:06:27;9.40;60.90
12849;DHT22;6493;50.928;7.172;2023-04-08T12:11:32;9.40;60.70
12849;DHT22;6493;50.928;7.172;2023-04-08T12:16:35;9.50;60.50
12849;DHT22;6493;50.928;7.172;2023-04-08T12:21:38;9.50;60.30
12849;DHT22;6493;50.928;7.172;2023-04-08T12:26:42;9.40;60.00
12849;DHT22;6493;50.928;7.172;2023-04-08T12:31:45;9.50;59.90
12849;DHT22;6493;50.928;7.172;2023-04-08T12:36:48;9.60;59.80
12849;DHT22;6493;50.928;7.172;2023-04-08T12:41:53;9.50;58.70
12849;DHT22;6493;50.928;7.172;2023-04-08T12:46:57;9.60;58.80
12849;DHT22;6493;50.928;7.172;2023-04-08T12:52:00;9.60;59.10
12849;DHT22;6493;50.928;7.172;2023-04-08T12:57:05;9.60;59.10
12849;DHT22;6493;50.928;7.172;2023-04-08T13:02:09;9.70;59.00
12849;DHT22;6493;50.928;7.172;2023-04-08T13:07:12;9.80;59.30
12849;DHT22;6493;50.928;7.172;2023-04-08T13:12:17;9.90;58.30
12849;DHT22;6493;50.928;7.172;2023-04-08T13:17:20;9.90;58.50
12849;DHT22;6493;50.928;7.172;2023-04-08T13:22:23;9.80;58.50
12849;DHT22;6493;50.928;7.172;2023-04-08T13:27:27;9.90;58.60
12849;DHT22;6493;50.928;7.172;2023-04-08T13:32:31;10.00;58.70
12849;DHT22;6493;50.928;7.172;2023-04-08T13:37:34;10.00;58.70
12849;DHT22;6493;50.928;7.172;2023-04-08T13:42:39;10.10;58.30
12849;DHT22;6493;50.928;7.172;2023-04-08T13:47:43;10.20;58.30
12849;DHT22;6493;50.928;7.172;2023-04-08T13:52:46;10.20;58.10
12849;DHT22;6493;50.928;7.172;2023-04-08T13:57:50;10.20;58.00
12849;DHT22;6493;50.928;7.172;2023-04-08T14:02:53;10.20;58.20
12849;DHT22;6493;50.928;7.172;2023-04-08T14:07:57;10.20;58.00
12849;DHT22;6493;50.928;7.172;2023-04-08T14:13:01;10.30;58.10
12849;DHT22;6493;50.928;7.172;2023-04-08T14:18:04;10.30;58.00
12849;DHT22;6493;50.928;7.172;2023-04-08T14:23:11;10.30;58.10
12849;DHT22;6493;50.928;7.172;2023-04-08T14:28:16;10.40;58.20
12849;DHT22;6493;50.928;7.172;2023-04-08T14:33:19;10.40;58.10
12849;DHT22;6493;50.928;7.172;2023-04-08T14:38:22;10.50;58.40
12849;DHT22;6493;50.928;7.172;2023-04-08T14:43:27;10.60;58.50
12849;DHT22;6493;50.928;7.172;2023-04-08T14:48:30;10.80;58.50
12849;DHT22;6493;50.928;7.172;2023-04-08T14:53:33;10.90;58.30
12849;DHT22;6493;50.928;7.172;2023-04-08T14:58:38;10.90;58.00
12849;DHT22;6493;50.928;7.172;2023-04-08T15:03:41;11.00;57.80
12849;DHT22;6493;50.928;7.172;2023-04-08T15:08:44;11.00;58.00
12849;DHT22;6493;50.928;7.172;2023-04-08T15:13:49;11.10;58.80
12849;DHT22;6493;50.928;7.172;2023-04-08T15:18:52;11.20;58.20
12849;DHT22;6493;50.928;7.172;2023-04-08T15:23:55;11.20;58.10
12849;DHT22;6493;50.928;7.172;2023-04-08T15:29:00;11.30;57.90
12849;DHT22;6493;50.928;7.172;2023-04-08T15:34:05;11.20;57.60
12849;DHT22;6493;50.928;7.172;2023-04-08T15:39:08;11.10;57.50
12849;DHT22;6493;50.928;7.172;2023-04-08T15:44:12;11.10;58.00
12849;DHT22;6493;50.928;7.172;2023-04-08T15:49:15;11.00;57.30
12849;DHT22;6493;50.928;7.172;2023-04-08T15:54:18;10.90;57.50
12849;DHT22;6493;50.928;7.172;2023-04-08T15:59:23;10.80;57.20
12849;DHT22;6493;50.928;7.172;2023-04-08T16:04:26;10.70;57.10
12849;DHT22;6493;50.928;7.172;2023-04-08T16:09:29;10.60;57.00
12849;DHT22;6493;50.928;7.172;2023-04-08T16:14:34;10.50;57.00
12849;DHT22;6493;50.928;7.172;2023-04-08T16:19:37;10.50;57.20
12849;DHT22;6493;50.928;7.172;2023-04-08T16:24:40;10.40;57.20
12849;DHT22;6493;50.928;7.172;2023-04-08T16:29:44;10.30;57.00
12849;DHT22;6493;50.928;7.172;2023-04-08T16:34:48;10.20;57.10
12849;DHT22;6493;50.928;7.172;2023-04-08T16:39:51;10.10;57.00
12849;DHT22;6493;50.928;7.172;2023-04-08T16:44:56;10.10;57.00
12849;DHT22;6493;50.928;7.172;2023-04-08T16:50:00;10.00;56.90
12849;DHT22;6493;50.928;7.172;2023-04-08T16:55:03;9.80;56.30
12849;DHT22;6493;50.928;7.172;2023-04-08T17:00:10;9.60;56.50
12849;DHT22;6493;50.928;7.172;2023-04-08T17:05:13;9.50;56.60
12849;DHT22;6493;50.928;7.172;2023-04-08T17:10:16;9.40;56.70
12849;DHT22;6493;50.928;7.172;2023-04-08T17:15:21;9.30;56.70
12849;DHT22;6493;50.928;7.172;2023-04-08T17:20:24;9.20;56.80
12849;DHT22;6493;50.928;7.172;2023-04-08T17:25:28;9.10;56.80
12849;DHT22;6493;50.928;7.172;2023-04-08T17:30:33;9.00;56.80
12849;DHT22;6493;50.928;7.172;2023-04-08T17:35:36;9.00;56.80
12849;DHT22;6493;50.928;7.172;2023-04-08T17:40:39;8.90;56.80
12849;DHT22;6493;50.928;7.172;2023-04-08T17:45:44;8.80;56.80
12849;DHT22;6493;50.928;7.172;2023-04-08T17:50:47;8.70;56.80
12849;DHT22;6493;50.928;7.172;2023-04-08T17:55:50;8.60;56.60
12849;DHT22;6493;50.928;7.172;2023-04-08T18:00:56;8.60;56.70
12849;DHT22;6493;50.928;7.172;2023-04-08T18:05:59;8.50;56.80
12849;DHT22;6493;50.928;7.172;2023-04-08T18:11:03;8.40;56.70
12849;DHT22;6493;50.928;7.172;2023-04-08T18:16:14;8.30;56.70
12849;DHT22;6493;50.928;7.172;2023-04-08T18:21:17;8.10;56.70
12849;DHT22;6493;50.928;7.172;2023-04-08T18:26:22;8.10;56.70
12849;DHT22;6493;50.928;7.172;2023-04-08T18:31:27;8.00;56.80
12849;DHT22;6493;50.928;7.172;2023-04-08T18:36:30;7.90;56.70
12849;DHT22;6493;50.928;7.172;2023-04-08T18:41:33;7.80;56.70
12849;DHT22;6493;50.928;7.172;2023-04-08T18:46:39;7.80;56.90
12849;DHT22;6493;50.928;7.172;2023-04-08T18:51:42;7.70;56.80
12849;DHT22;6493;50.928;7.172;2023-04-08T18:57:02;7.60;56.80
12849;DHT22;6493;50.928;7.172;2023-04-08T19:02:07;7.60;56.80
12849;DHT22;6493;50.928;7.172;2023-04-08T19:07:10;7.50;56.80
12849;DHT22;6493;50.928;7.172;2023-04-08T19:12:13;7.50;56.90
12849;DHT22;6493;50.928;7.172;2023-04-08T19:17:18;7.40;57.00
12849;DHT22;6493;50.928;7.172;2023-04-08T19:22:21;7.40;57.00
12849;DHT22;6493;50.928;7.172;2023-04-08T19:27:25;7.30;57.00
12849;DHT22;6493;50.928;7.172;2023-04-08T19:32:30;7.30;57.00
12849;DHT22;6493;50.928;7.172;2023-04-08T19:37:35;7.30;57.10
12849;DHT22;6493;50.928;7.172;2023-04-08T19:42:38;7.10;56.90
12849;DHT22;6493;50.928;7.172;2023-04-08T19:47:43;7.10;57.10
12849;DHT22;6493;50.928;7.172;2023-04-08T19:52:46;7.00;57.30
12849;DHT22;6493;50.928;7.172;2023-04-08T19:57:49;6.90;57.10
12849;DHT22;6493;50.928;7.172;2023-04-08T20:02:54;6.90;57.80
12849;DHT22;6493;50.928;7.172;2023-04-08T20:07:57;6.80;57.40
12849;DHT22;6493;50.928;7.172;2023-04-08T20:13:00;6.70;57.40
12849;DHT22;6493;50.928;7.172;2023-04-08T20:18:04;6.70;57.40
12849;DHT22;6493;50.928;7.172;2023-04-08T20:23:07;6.60;57.40
12849;DHT22;6493;50.928;7.172;2023-04-08T20:28:11;6.60;57.50
12849;DHT22;6493;50.928;7.172;2023-04-08T20:33:15;6.60;57.60
12849;DHT22;6493;50.928;7.172;2023-04-08T20:38:18;6.60;57.60
12849;DHT22;6493;50.928;7.172;2023-04-08T20:43:22;6.50;57.60
12849;DHT22;6493;50.928;7.172;2023-04-08T20:48:26;6.50;57.70
12849;DHT22;6493;50.928;7.172;2023-04-08T20:53:31;6.40;57.90
12849;DHT22;6493;50.928;7.172;2023-04-08T20:58:35;6.20;57.90
12849;DHT22;6493;50.928;7.172;2023-04-08T21:03:39;6.10;58.00
12849;DHT22;6493;50.928;7.172;2023-04-08T21:08:43;6.00;58.00
12849;DHT22;6493;50.928;7.172;2023-04-08T21:13:46;5.90;57.90
12849;DHT22;6493;50.928;7.172;2023-04-08T21:18:51;5.90;58.50
12849;DHT22;6493;50.928;7.172;2023-04-08T21:23:54;5.80;58.30
12849;DHT22;6493;50.928;7.172;2023-04-08T21:28:57;5.80;58.10
12849;DHT22;6493;50.928;7.172;2023-04-08T21:34:02;5.60;58.10
12849;DHT22;6493;50.928;7.172;2023-04-08T21:39:06;5.60;58.10
12849;DHT22;6493;50.928;7.172;2023-04-08T21:44:09;5.60;58.10
12849;DHT22;6493;50.928;7.172;2023-04-08T21:49:14;5.50;58.30
12849;DHT22;6493;50.928;7.172;2023-04-08T21:54:17;5.50;58.20
12849;DHT22;6493;50.928;7.172;2023-04-08T21:59:20;5.40;58.40
12849;DHT22;6493;50.928;7.172;2023-04-08T22:04:25;5.30;58.60
12849;DHT22;6493;50.928;7.172;2023-04-08T22:09:28;5.30;58.60
12849;DHT22;6493;50.928;7.172;2023-04-08T22:14:32;5.30;59.00
12849;DHT22;6493;50.928;7.172;2023-04-08T22:19:37;5.20;58.90
12849;DHT22;6493;50.928;7.172;2023-04-08T22:24:40;5.10;58.80
12849;DHT22;6493;50.928;7.172;2023-04-08T22:29:43;5.10;59.00
12849;DHT22;6493;50.928;7.172;2023-04-08T22:34:47;5.00;59.20
12849;DHT22;6493;50.928;7.172;2023-04-08T22:39:50;5.00;59.30
12849;DHT22;6493;50.928;7.172;2023-04-08T22:44:53;4.90;59.80
12849;DHT22;6493;50.928;7.172;2023-04-08T22:49:58;4.80;59.30
12849;DHT22;6493;50.928;7.172;2023-04-08T22:55:01;4.80;59.50
12849;DHT22;6493;50.928;7.172;2023-04-08T23:00:05;4.80;59.50
12849;DHT22;6493;50.928;7.172;2023-04-08T23:05:10;4.80;59.20
12849;DHT22;6493;50.928;7.172;2023-04-08T23:10:13;4.70;59.30
12849;DHT22;6493;50.928;7.172;2023-04-08T23:15:17;4.70;59.10
12849;DHT22;6493;50.928;7.172;2023-04-08T23:20:21;4.70;59.10
12849;DHT22;6493;50.928;7.172;2023-04-08T23:25:24;4.70;59.20
12849;DHT22;6493;50.928;7.172;2023-04-08T23:30:27;4.70;59.00
12849;DHT22;6493;50.928;7.172;2023-04-08T23:35:32;4.60;58.90
12849;DHT22;6493;50.928;7.172;2023-04-08T23:40:35;4.60;58.80
12849;DHT22;6493;50.928;7.172;2023-04-08T23:45:38;4.60;58.70
12849;DHT22;6493;50.928;7.172;2023-04-08T23:50:42;4.50;58.60
12849;DHT22;6493;50.928;7.172;2023-04-08T23:55:46;4.50;58.70
